Time;durP1;ratioP1;P1;durP2;ratioP2;P2;SDS_P1;SDS_P2;PMS_P1;PMS_P2;Temp;Humidity;BMP_temperature;BMP_pressure;BME280_temperature;BME280_humidity;BME280_pressure;Samples;Min_cycle;Max_cycle;Signal;HPM_P1;HPM_P2
2023/06/18 00:02:01;;;;;;;9.02;8.05;;;;;;;14.50;100.00;100931.97;4989958;28;20541;-74
2023/06/18 00:04:27;;;;;;;11.10;8.27;;;;;;;14.45;100.00;100932.53;4987072;28;20026;-74
2023/06/18 00:06:54;;;;;;;9.07;7.05;;;;;;;14.43;100.00;100923.81;4989236;28;20462;-74
2023/06/18 00:09:20;;;;;;;8.63;7.68;;;;;;;14.41;100.00;100928.53;5004351;28;20022;-74
2023/06/18 00:11:45;;;;;;;8.00;7.20;;;;;;;14.36;100.00;100923.72;4984844;28;20497;-74
2023/06/18 00:14:10;;;;;;;9.93;8.23;;;;;;;14.31;100.00;100915.38;5009926;28;20383;-74
2023/06/18 00:16:36;;;;;;;8.77;7.60;;;;;;;14.28;100.00;100915.75;5001995;28;20033;-74
2023/06/18 00:19:01;;;;;;;10.77;8.17;;;;;;;14.25;100.00;100913.41;4988320;28;20053;-74
2023/06/18 00:21:26;;;;;;;9.53;8.50;;;;;;;14.27;100.00;100932.03;5003434;28;20030;-74
2023/06/18 00:23:52;;;;;;;8.63;7.00;;;;;;;14.23;100.00;100925.34;5003075;28;20034;-74
2023/06/18 00:26:17;;;;;;;8.73;7.83;;;;;;;14.24;100.00;100941.28;5002472;28;20194;-73
2023/06/18 00:28:46;;;;;;;10.55;8.02;;;;;;;14.22;100.00;100953.22;5001654;28;20173;-74
2023/06/18 00:31:13;;;;;;;9.38;7.80;;;;;;;14.21;100.00;100960.47;5006172;28;20333;-74
2023/06/18 00:33:38;;;;;;;11.02;7.63;;;;;;;14.18;100.00;100954.59;5000730;28;20099;-74
2023/06/18 00:36:06;;;;;;;8.67;7.77;;;;;;;14.13;100.00;100944.41;5002880;28;20613;-74
2023/06/18 00:38:33;;;;;;;9.00;7.63;;;;;;;14.12;100.00;100948.13;5003125;28;20466;-74
2023/06/18 00:40:59;;;;;;;11.75;8.02;;;;;;;14.11;100.00;100947.25;5005518;28;20038;-74
2023/06/18 00:43:27;;;;;;;9.48;8.45;;;;;;;14.09;100.00;100948.44;4986086;28;20065;-74
2023/06/18 00:45:54;;;;;;;10.95;7.80;;;;;;;14.00;100.00;100934.28;4985538;28;20046;-74
2023/06/18 00:48:20;;;;;;;9.07;8.18;;;;;;;14.04;100.00;100940.09;5004259;28;20018;-74
2023/06/18 00:50:46;;;;;;;8.50;7.70;;;;;;;14.04;100.00;100929.38;5000548;28;20525;-74
2023/06/18 00:53:12;;;;;;;10.25;8.38;;;;;;;13.97;100.00;100928.44;5009941;28;20051;-74
2023/06/18 00:55:38;;;;;;;9.55;7.85;;;;;;;13.90;100.00;100929.13;4985026;28;20026;-74
2023/06/18 00:58:05;;;;;;;10.15;8.07;;;;;;;13.90;100.00;100933.69;4986648;28;20049;-74
2023/06/18 01:00:34;;;;;;;9.88;8.20;;;;;;;13.89;100.00;100938.22;5002887;28;20041;-74
2023/06/18 01:03:21;;;;;;;9.15;8.23;;;;;;;13.90;100.00;100936.34;4987370;28;20120;-74
2023/06/18 01:05:53;;;;;;;12.52;8.15;;;;;;;13.85;100.00;100930.69;4987175;28;20030;-74
2023/06/18 01:08:23;;;;;;;12.07;9.05;;;;;;;13.81;100.00;100930.22;5005354;28;20034;-74
2023/06/18 01:11:00;;;;;;;11.30;8.23;;;;;;;13.78;100.00;100927.91;4987685;28;20025;-74
2023/06/18 01:13:30;;;;;;;10.80;8.27;;;;;;;13.77;100.00;100939.66;5002260;28;20561;-74
2023/06/18 01:15:58;;;;;;;9.73;8.27;;;;;;;13.77;100.00;100936.16;5001855;28;20038;-74
2023/06/18 01:18:24;;;;;;;10.18;7.90;;;;;;;13.76;100.00;100937.13;5002781;28;20033;-74
2023/06/18 01:20:51;;;;;;;9.13;8.23;;;;;;;13.70;100.00;100917.25;4984191;28;20022;-74
2023/06/18 01:23:27;;;;;;;11.88;8.90;;;;;;;13.63;100.00;100911.75;5004701;28;20018;-74
2023/06/18 01:25:57;;;;;;;12.68;8.90;;;;;;;13.56;100.00;100901.91;5000685;28;20045;-74
2023/06/18 01:28:24;;;;;;;11.25;8.18;;;;;;;13.54;100.00;100906.63;4985814;28;20087;-74
2023/06/18 01:30:50;;;;;;;9.50;8.00;;;;;;;13.50;100.00;100906.13;5002337;28;20030;-74
2023/06/18 01:33:15;;;;;;;10.50;8.07;;;;;;;13.51;100.00;100908.63;5003591;28;20021;-74
2023/06/18 01:35:41;;;;;;;11.53;9.23;;;;;;;13.52;100.00;100920.19;4991027;28;20042;-74
2023/06/18 01:38:30;;;;;;;11.52;9.13;;;;;;;13.46;100.00;100911.03;5004883;28;20117;-74
2023/06/18 01:41:14;;;;;;;9.98;8.15;;;;;;;13.41;100.00;100910.69;4988176;28;20231;-74
2023/06/18 01:43:48;;;;;;;10.95;8.65;;;;;;;13.38;100.00;100913.75;5003702;28;20496;-74
2023/06/18 01:46:22;;;;;;;10.00;8.40;;;;;;;13.35;100.00;100919.47;5004870;28;20037;-74
2023/06/18 01:48:53;;;;;;;14.40;8.18;;;;;;;13.28;100.00;100930.06;5000600;28;20029;-74
2023/06/18 01:51:20;;;;;;;9.88;8.73;;;;;;;13.26;100.00;100921.31;5003542;28;20025;-74
2023/06/18 01:53:47;;;;;;;13.18;10.30;;;;;;;13.30;100.00;100928.03;4994593;28;20038;-74
2023/06/18 01:56:13;;;;;;;;;;;;;;;13.36;100.00;100929.16;5008971;28;20142;-74
2023/06/18 01:58:43;;;;;;;13.65;10.75;;;;;;;13.36;100.00;100947.94;4983730;28;20012;-74
2023/06/18 02:01:11;;;;;;;12.75;10.32;;;;;;;13.35;100.00;100962.38;5001093;28;20030;-74
2023/06/18 02:03:37;;;;;;;11.52;9.52;;;;;;;13.27;100.00;100959.69;5000427;28;20028;-74
2023/06/18 02:06:03;;;;;;;11.45;10.18;;;;;;;13.22;100.00;100952.16;4986420;28;20429;-74
2023/06/18 02:08:29;;;;;;;11.98;9.50;;;;;;;13.20;100.00;100954.19;5002786;28;20021;-74
2023/06/18 02:10:54;;;;;;;20.40;11.50;;;;;;;13.26;100.00;100968.75;5000461;28;20350;-74
2023/06/18 02:13:20;;;;;;;11.55;9.93;;;;;;;13.19;100.00;100965.94;5003969;28;20393;-74
2023/06/18 02:15:45;;;;;;;9.93;8.93;;;;;;;13.15;100.00;100950.38;4982845;28;20038;-74
2023/06/18 02:18:11;;;;;;;10.83;9.30;;;;;;;13.13;100.00;100958.56;5008732;28;20018;-74
2023/06/18 02:20:37;;;;;;;;;;;;;;;13.16;100.00;100962.75;5000910;28;20030;-74
2023/06/18 02:23:03;;;;;;;;;;;;;;;13.18;100.00;100956.22;5020660;28;19924;-74
2023/06/18 02:25:32;;;;;;;;;;;;;;;13.39;100.00;100982.47;5010176;28;19924;-74
2023/06/18 02:28:05;;;;;;;20.38;12.77;;;;;;;13.35;100.00;100989.19;5000549;28;20414;-74
2023/06/18 02:30:31;;;;;;;13.55;11.45;;;;;;;13.20;100.00;100985.53;5001314;28;20045;-76
2023/06/18 02:33:01;;;;;;;13.32;11.07;;;;;;;13.06;100.00;100969.19;5000010;28;20300;-75
2023/06/18 02:35:27;;;;;;;14.60;12.90;;;;;;;13.11;100.00;100971.34;4985123;28;20036;-75
2023/06/18 02:37:53;;;;;;;12.15;10.68;;;;;;;13.08;100.00;100972.50;4984796;28;20019;-74
2023/06/18 02:40:19;;;;;;;14.38;11.38;;;;;;;13.05;100.00;100972.03;4985077;28;20053;-74
2023/06/18 02:42:47;;;;;;;13.30;11.07;;;;;;;13.08;100.00;100966.31;5000468;28;20050;-73
2023/06/18 02:45:21;;;;;;;13.60;10.90;;;;;;;13.06;100.00;100957.59;4986303;28;20038;-74
2023/06/18 02:47:49;;;;;;;13.57;10.45;;;;;;;12.99;100.00;100952.09;4998652;28;20506;-74
2023/06/18 02:50:17;;;;;;;11.75;10.55;;;;;;;12.95;100.00;100940.06;5001199;28;20104;-73
2023/06/18 02:52:44;;;;;;;16.10;12.15;;;;;;;12.99;100.00;100938.69;4999240;28;20209;-74
2023/06/18 02:55:11;;;;;;;13.35;10.32;;;;;;;12.99;100.00;100941.38;4991522;28;20017;-74
2023/06/18 02:57:38;;;;;;;12.85;10.20;;;;;;;12.95;100.00;100940.06;5003287;28;20030;-74
2023/06/18 03:00:05;;;;;;;15.50;12.85;;;;;;;13.08;100.00;100956.41;5007493;28;20410;-74
2023/06/18 03:02:34;;;;;;;13.57;9.48;;;;;;;12.98;100.00;100942.38;4989857;28;20025;-74
2023/06/18 03:05:03;;;;;;;11.98;10.02;;;;;;;12.97;100.00;100931.84;5008347;28;20060;-74
2023/06/18 03:07:28;;;;;;;12.30;10.32;;;;;;;12.96;100.00;100941.72;5007891;28;20018;-74
2023/06/18 03:09:54;;;;;;;16.07;12.47;;;;;;;13.01;100.00;100934.00;5007502;28;20514;-73
2023/06/18 03:12:20;;;;;;;14.07;10.38;;;;;;;13.05;100.00;100951.41;4991007;28;20018;-73
2023/06/18 03:14:48;;;;;;;12.73;10.35;;;;;;;12.99;100.00;100938.69;5004816;28;20376;-74
2023/06/18 03:17:14;;;;;;;13.25;11.13;;;;;;;13.07;100.00;100954.75;5009980;28;20455;-74
2023/06/18 03:19:39;;;;;;;15.60;12.47;;;;;;;13.11;100.00;100960.63;5005519;28;20069;-74
2023/06/18 03:22:05;;;;;;;10.97;9.67;;;;;;;13.06;100.00;100962.97;5007957;28;20112;-74
2023/06/18 03:24:32;;;;;;;13.75;10.10;;;;;;;13.04;100.00;100949.75;5006885;28;20482;-74
2023/06/18 03:26:59;;;;;;;11.75;10.07;;;;;;;13.10;100.00;100957.06;5008953;28;20602;-73
2023/06/18 03:29:26;;;;;;;11.65;9.50;;;;;;;13.07;100.00;100946.72;5007162;28;20034;-74
2023/06/18 03:31:53;;;;;;;11.20;9.40;;;;;;;13.16;100.00;100952.03;5006972;28;20022;-74
2023/06/18 03:34:20;;;;;;;12.40;10.15;;;;;;;13.19;100.00;100955.19;5011627;28;20030;-75
2023/06/18 03:36:47;;;;;;;11.70;10.27;;;;;;;13.21;100.00;100950.50;5006032;28;20043;-73
2023/06/18 03:39:18;;;;;;;13.02;11.43;;;;;;;13.26;100.00;100952.66;5008424;28;20061;-73
2023/06/18 03:41:44;;;;;;;16.08;12.88;;;;;;;13.43;100.00;100973.03;5004891;28;20034;-73
2023/06/18 03:44:11;;;;;;;15.23;11.68;;;;;;;13.47;100.00;100993.16;5013816;28;20497;-73
2023/06/18 03:46:36;;;;;;;16.23;11.93;;;;;;;13.45;100.00;100979.06;5004937;28;20041;-73
2023/06/18 03:49:02;;;;;;;15.27;11.40;;;;;;;13.51;100.00;100978.38;5010457;28;20037;-74
2023/06/18 03:51:28;;;;;;;15.73;13.85;;;;;;;13.65;100.00;100974.13;5007475;28;20111;-74
2023/06/18 03:53:54;;;;;;;16.25;13.13;;;;;;;13.83;100.00;100997.97;5006114;28;20358;-73
2023/06/18 03:56:21;;;;;;;16.27;11.57;;;;;;;13.90;100.00;101000.78;5007994;28;20029;-74
2023/06/18 03:58:48;;;;;;;13.68;11.52;;;;;;;13.89;100.00;100991.91;5004091;28;20027;-74
2023/06/18 04:01:14;;;;;;;13.15;10.82;;;;;;;13.98;100.00;100976.56;5008225;28;20057;-73
2023/06/18 04:03:40;;;;;;;;;;;;;;;14.14;100.00;100978.28;5004860;28;20028;-74
2023/06/18 04:06:06;;;;;;;;;;;;;;;14.28;100.00;100972.13;5007513;28;20003;-74
2023/06/18 04:08:31;;;;;;;13.43;11.43;;;;;;;14.38;100.00;100973.75;5003811;28;20272;-73
2023/06/18 04:10:57;;;;;;;15.33;13.00;;;;;;;14.52;100.00;100971.06;5003291;28;20170;-73
2023/06/18 04:13:24;;;;;;;14.95;11.75;;;;;;;14.61;100.00;100985.31;5003081;28;20224;-74
2023/06/18 04:15:49;;;;;;;11.25;9.73;;;;;;;14.68;100.00;100966.56;5010863;28;20033;-73
2023/06/18 04:18:16;;;;;;;14.88;11.27;;;;;;;14.83;100.00;100966.59;5004673;28;20026;-74
2023/06/18 04:20:42;;;;;;;16.55;13.38;;;;;;;14.97;100.00;100963.88;5001811;28;20034;-73
2023/06/18 04:23:08;;;;;;;12.77;10.52;;;;;;;15.11;100.00;100975.66;4986203;28;20367;-73
2023/06/18 04:25:34;;;;;;;13.45;10.38;;;;;;;15.23;100.00;100973.34;5001837;28;20068;-73
2023/06/18 04:28:01;;;;;;;16.38;13.50;;;;;;;15.38;100.00;100979.53;5003568;28;20034;-73
2023/06/18 04:30:26;;;;;;;15.13;13.10;;;;;;;15.54;100.00;101001.84;4987127;28;20030;-74
2023/06/18 04:32:53;;;;;;;18.05;13.50;;;;;;;15.68;100.00;101016.28;4993916;28;20423;-73
2023/06/18 04:35:19;;;;;;;;;;;;;;;15.84;100.00;101016.09;4988425;28;20210;-73
2023/06/18 04:37:45;;;;;;;13.98;12.48;;;;;;;15.94;100.00;101016.59;5002198;28;19910;-73
2023/06/18 04:40:11;;;;;;;18.92;14.55;;;;;;;15.96;100.00;101011.88;5009784;28;20406;-74
2023/06/18 04:42:38;;;;;;;17.33;13.13;;;;;;;16.08;100.00;101016.75;4987642;28;20046;-73
2023/06/18 04:45:05;;;;;;;15.10;11.80;;;;;;;16.23;100.00;101010.28;5003320;28;20089;-74
2023/06/18 04:47:32;;;;;;;14.73;12.32;;;;;;;16.38;100.00;101004.81;4986306;28;20727;-74
2023/06/18 04:49:58;;;;;;;18.35;14.15;;;;;;;16.54;100.00;101000.19;5003963;28;20034;-74
2023/06/18 04:52:23;;;;;;;17.03;13.40;;;;;;;16.62;100.00;100994.63;4994973;28;20092;-74
2023/06/18 04:54:52;;;;;;;15.65;11.68;;;;;;;16.82;100.00;100998.31;5001891;28;20574;-74
2023/06/18 04:57:18;;;;;;;15.43;13.02;;;;;;;16.90;100.00;100983.84;5003810;28;20057;-74
2023/06/18 04:59:43;;;;;;;17.17;13.55;;;;;;;17.11;100.00;100996.41;4984504;28;20435;-74
2023/06/18 05:02:10;;;;;;;17.02;13.10;;;;;;;17.28;100.00;100989.66;4993508;28;20022;-74
2023/06/18 05:04:35;;;;;;;14.10;11.40;;;;;;;17.47;100.00;100981.84;5010095;28;20425;-74
2023/06/18 05:07:01;;;;;;;13.07;11.55;;;;;;;17.69;100.00;100963.63;5004812;28;20410;-74
2023/06/18 05:09:29;;;;;;;13.93;12.43;;;;;;;17.87;100.00;100955.00;5003237;28;20026;-74
2023/06/18 05:11:54;;;;;;;19.48;14.23;;;;;;;18.03;100.00;100943.78;4986521;28;20018;-74
2023/06/18 05:14:20;;;;;;;17.30;12.88;;;;;;;18.26;100.00;100937.97;5002937;28;20022;-74
2023/06/18 05:16:46;;;;;;;17.33;13.23;;;;;;;18.38;100.00;100930.06;4984174;28;20022;-74
2023/06/18 05:19:12;;;;;;;16.23;12.53;;;;;;;18.49;100.00;100931.28;5009090;28;20030;-74
2023/06/18 05:21:37;;;;;;;14.60;11.00;;;;;;;18.75;100.00;100941.22;5000137;28;20255;-74
2023/06/18 05:24:03;;;;;;;13.90;11.10;;;;;;;18.94;100.00;100907.91;5002283;28;20038;-74
2023/06/18 05:26:30;;;;;;;13.35;12.02;;;;;;;19.09;100.00;100887.88;5002608;28;20030;-74
2023/06/18 05:28:57;;;;;;;17.35;12.40;;;;;;;19.22;100.00;100862.59;5006285;28;20364;-74
2023/06/18 05:31:22;;;;;;;14.25;10.88;;;;;;;19.59;100.00;100871.75;5003718;28;20025;-74
2023/06/18 05:33:48;;;;;;;12.98;11.23;;;;;;;19.76;100.00;100853.09;5000814;28;20030;-74
2023/06/18 05:36:13;;;;;;;14.27;12.27;;;;;;;19.85;100.00;100799.47;4986119;28;20104;-75
2023/06/18 05:38:39;;;;;;;11.15;9.85;;;;;;;20.76;100.00;100789.75;5000915;28;20458;-74
2023/06/18 05:41:04;;;;;;;14.90;13.30;;;;;;;20.95;100.00;100696.38;4986037;28;20021;-75
2023/06/18 05:43:30;;;;;;;14.75;12.93;;;;;;;21.68;100.00;100618.28;5000648;28;20129;-75
2023/06/18 05:45:55;;;;;;;13.10;11.45;;;;;;;22.49;100.00;100499.41;5001546;28;20027;-75
2023/06/18 05:48:21;;;;;;;13.00;11.70;;;;;;;23.13;100.00;100395.56;5002728;28;20065;-75
2023/06/18 05:51:00;;;;;;;12.77;9.48;;;;;;;22.93;100.00;100325.31;5001456;28;20490;-75
2023/06/18 05:53:26;;;;;;;9.77;8.77;;;;;;;24.05;100.00;100204.81;5004464;28;20122;-75
2023/06/18 05:55:52;;;;;;;8.70;7.78;;;;;;;24.44;100.00;100152.56;4987262;28;20030;-75
2023/06/18 05:58:19;;;;;;;11.15;10.10;;;;;;;24.72;100.00;99967.59;5003202;28;20056;-74
2023/06/18 06:00:44;;;;;;;9.32;8.43;;;;;;;25.08;100.00;99962.91;4983714;28;20054;-75
2023/06/18 06:03:10;;;;;;;9.82;8.90;;;;;;;24.95;100.00;99993.50;5008230;28;20062;-74
2023/06/18 06:05:36;;;;;;;7.25;6.63;;;;;;;25.44;99.17;100012.78;5006780;28;20098;-75
2023/06/18 06:08:02;;;;;;;9.98;8.52;;;;;;;25.86;94.14;99936.84;4999914;28;21494;-75
2023/06/18 06:10:27;;;;;;;10.07;9.07;;;;;;;25.78;92.06;99902.75;5002364;28;20396;-75
2023/06/18 06:12:53;;;;;;;;;;;;;;;26.01;89.92;99934.06;4986966;28;20038;-75
2023/06/18 06:15:19;;;;;;;10.02;6.97;;;;;;;26.81;83.95;99801.38;5001985;28;20148;-75
2023/06/18 06:17:45;;;;;;;8.43;7.32;;;;;;;27.09;82.38;99817.97;5003206;28;20058;-75
2023/06/18 06:20:12;;;;;;;7.88;7.07;;;;;;;26.76;82.33;99878.09;5007883;28;20414;-75
2023/06/18 06:22:37;;;;;;;9.60;8.32;;;;;;;26.22;81.34;99847.19;5001690;28;20038;-75
2023/06/18 06:25:04;;;;;;;8.55;6.97;;;;;;;26.53;79.51;99853.13;5001991;28;20037;-74
2023/06/18 06:27:30;;;;;;;10.10;9.10;;;;;;;26.06;79.63;99843.75;4985557;28;20513;-75
2023/06/18 06:29:55;;;;;;;11.13;8.40;;;;;;;26.16;79.40;99951.44;4991730;28;20045;-74
2023/06/18 06:32:24;;;;;;;10.15;9.10;;;;;;;25.99;78.23;99810.47;4990654;28;20030;-75
2023/06/18 06:34:49;;;;;;;9.80;7.55;;;;;;;25.37;79.92;99948.59;5006903;28;20044;-75
2023/06/18 06:37:14;;;;;;;7.60;6.85;;;;;;;26.15;78.05;99985.34;5016412;28;20479;-75
2023/06/18 06:39:40;;;;;;;9.13;7.03;;;;;;;26.18;75.48;99780.47;5007523;28;20450;-75
2023/06/18 06:42:06;;;;;;;6.43;5.82;;;;;;;26.86;74.69;99962.06;5015822;28;20021;-75
2023/06/18 06:44:31;;;;;;;7.13;5.57;;;;;;;27.37;70.97;99761.44;5006977;28;20026;-75
2023/06/18 06:47:15;;;;;;;7.38;5.60;;;;;;;27.73;68.09;99610.84;4986459;28;20056;-75
2023/06/18 06:50:07;;;;;;;6.15;5.55;;;;;;;27.68;67.76;99657.56;5006007;28;20088;-75
2023/06/18 06:52:47;;;;;;;8.55;6.50;;;;;;;27.38;65.98;99515.63;5007114;28;20022;-75
2023/06/18 06:55:14;;;;;;;7.20;5.65;;;;;;;26.81;65.35;99370.69;5003222;28;20461;-75
2023/06/18 06:57:39;;;;;;;5.93;4.95;;;;;;;26.90;65.66;99506.63;5019326;28;20029;-76
2023/06/18 07:00:06;;;;;;;6.78;6.18;;;;;;;27.09;65.83;99618.84;5007119;28;20041;-75
2023/06/18 07:02:33;;;;;;;8.70;6.13;;;;;;;26.38;68.08;99672.69;5007167;28;20494;-75
2023/06/18 07:04:59;;;;;;;6.60;4.78;;;;;;;26.11;68.91;99780.81;5006808;28;20038;-76
2023/06/18 07:07:24;;;;;;;6.85;5.10;;;;;;;26.59;66.56;99680.66;5016749;28;20105;-75
2023/06/18 07:09:50;;;;;;;6.78;5.47;;;;;;;27.05;63.77;99491.81;4999034;28;20144;-75
2023/06/18 07:12:15;;;;;;;5.78;5.18;;;;;;;26.37;64.28;99432.25;5008357;28;20022;-75
2023/06/18 07:14:40;;;;;;;5.90;5.30;;;;;;;26.48;64.59;99493.88;5008016;28;20133;-75
2023/06/18 07:17:06;;;;;;;6.90;5.23;;;;;;;26.24;64.84;99478.38;5007061;28;20026;-75
2023/06/18 07:19:31;;;;;;;5.63;4.95;;;;;;;26.76;64.07;99576.91;5008425;28;20338;-75
2023/06/18 07:21:56;;;;;;;6.85;6.15;;;;;;;26.79;62.79;99417.56;5016971;28;20060;-75
2023/06/18 07:24:22;;;;;;;7.70;5.82;;;;;;;25.66;65.06;99411.13;5013472;28;20033;-75
2023/06/18 07:26:47;;;;;;;;;;;;;;;25.89;65.83;99613.69;5019930;28;20483;-75
2023/06/18 07:29:12;;;;;;;6.20;5.60;;;;;;;26.25;66.20;99747.28;5008324;28;20393;-75
2023/06/18 07:31:38;;;;;;;7.35;5.60;;;;;;;26.10;64.40;99493.91;5015899;28;20466;-75
2023/06/18 07:34:04;;;;;;;7.05;6.43;;;;;;;26.25;65.37;99655.09;5009171;28;20452;-75
2023/06/18 07:36:29;;;;;;;6.90;5.85;;;;;;;26.84;63.16;99576.25;5007127;28;20028;-75
2023/06/18 07:38:56;;;;;;;10.32;6.57;;;;;;;26.03;63.98;99446.97;5007078;28;20065;-75
2023/06/18 07:41:21;;;;;;;6.47;5.88;;;;;;;25.58;63.71;99279.81;5008417;28;20061;-76
2023/06/18 07:43:47;;;;;;;7.93;6.43;;;;;;;25.64;65.28;99607.38;5009248;28;20061;-75
2023/06/18 07:46:12;;;;;;;7.70;6.50;;;;;;;26.06;63.43;99493.69;5011764;28;20095;-75
2023/06/18 07:48:38;;;;;;;7.18;6.40;;;;;;;25.98;64.00;99540.84;4994400;28;20281;-74
2023/06/18 07:51:04;;;;;;;;;;;;;;;25.35;67.76;99775.97;5020379;28;20026;-76
2023/06/18 07:53:29;;;;;;;7.40;6.57;;;;;;;25.98;64.44;99584.59;5011700;28;19914;-75
2023/06/18 07:55:55;;;;;;;7.53;5.72;;;;;;;26.06;64.51;99592.16;5007806;28;20106;-75
2023/06/18 07:58:20;;;;;;;7.03;5.70;;;;;;;26.18;65.19;99692.13;4994622;28;20468;-75
2023/06/18 08:00:45;;;;;;;6.72;6.03;;;;;;;25.24;65.91;99532.97;5011733;28;20026;-75
2023/06/18 08:03:11;;;;;;;8.07;6.10;;;;;;;25.56;66.29;99697.38;5001621;28;20080;-75
2023/06/18 08:05:36;;;;;;;5.93;5.40;;;;;;;26.16;66.22;99798.28;5017477;28;20907;-75
2023/06/18 08:08:02;;;;;;;6.10;4.80;;;;;;;26.52;67.66;100062.22;5023130;28;20280;-75
2023/06/18 08:10:27;;;;;;;5.95;5.35;;;;;;;27.19;64.23;99828.00;5023145;28;20052;-75
2023/06/18 08:12:52;;;;;;;9.30;6.97;;;;;;;26.76;63.30;99537.78;5013800;28;20033;-75
2023/06/18 08:15:18;;;;;;;6.70;5.38;;;;;;;26.22;64.41;99572.78;5009802;28;20105;-74
2023/06/18 08:17:43;;;;;;;7.30;6.55;;;;;;;26.22;63.80;99493.47;5011198;28;20458;-75
2023/06/18 08:20:09;;;;;;;7.90;6.50;;;;;;;25.84;64.53;99493.44;5011054;28;20117;-75
2023/06/18 08:22:34;;;;;;;6.65;6.05;;;;;;;26.30;64.75;99696.06;4993112;28;20050;-75
2023/06/18 08:25:00;;;;;;;7.30;4.87;;;;;;;26.41;65.36;99814.41;5015549;28;20057;-75
2023/06/18 08:27:25;;;;;;;11.60;6.28;;;;;;;26.95;64.78;99857.06;5020683;28;20276;-75
2023/06/18 08:29:50;;;;;;;6.60;5.63;;;;;;;27.00;63.04;99647.22;5009660;28;20622;-75
2023/06/18 08:32:16;;;;;;;7.93;5.70;;;;;;;27.38;62.51;99701.97;5009829;28;20145;-75
2023/06/18 08:34:42;;;;;;;6.47;5.88;;;;;;;26.90;62.21;99549.59;5014687;28;20028;-74
2023/06/18 08:37:11;;;;;;;6.47;5.78;;;;;;;26.42;63.05;99520.50;5019961;28;20041;-75
2023/06/18 08:39:37;;;;;;;9.13;6.28;;;;;;;26.50;62.31;99519.00;5007768;28;20052;-75
2023/06/18 08:42:03;;;;;;;;;;;;;;;26.71;61.53;99481.19;5016852;28;20414;-74
2023/06/18 08:44:30;;;;;;;8.50;6.35;;;;;;;25.92;62.10;99298.69;5009232;28;19917;-75
2023/06/18 08:47:00;;;;;;;6.53;5.90;;;;;;;26.68;60.50;99433.34;5001506;28;20041;-75
2023/06/18 08:49:29;;;;;;;7.20;6.03;;;;;;;25.48;62.97;99376.41;4994494;28;20502;-74
2023/06/18 08:51:57;;;;;;;7.38;5.90;;;;;;;25.85;63.72;99568.88;5009526;28;20034;-75
2023/06/18 08:54:34;;;;;;;6.88;6.28;;;;;;;25.19;63.44;99256.34;4995754;28;20094;-75
2023/06/18 08:57:18;;;;;;;7.45;6.53;;;;;;;26.14;63.16;99581.66;5005081;28;20030;-74
2023/06/18 08:59:44;;;;;;;7.50;6.00;;;;;;;26.38;61.25;99429.19;5020986;28;20485;-75
2023/06/18 09:02:13;;;;;;;8.98;5.68;;;;;;;27.15;59.63;99474.38;5018416;28;20021;-74
2023/06/18 09:04:39;;;;;;;6.45;5.57;;;;;;;26.95;58.34;99207.22;5008775;28;20041;-75
2023/06/18 09:07:05;;;;;;;9.65;6.32;;;;;;;27.36;58.74;99400.81;5013354;28;20116;-75
2023/06/18 09:09:30;;;;;;;;;;;;;;;27.70;58.26;99468.09;5014753;28;20042;-75
2023/06/18 09:11:56;;;;;;;6.38;5.78;;;;;;;26.66;56.93;98928.41;5009129;28;19909;-74
2023/06/18 09:14:23;;;;;;;;;;;;;;;27.20;58.62;99416.78;5009024;28;20030;-74
2023/06/18 09:16:48;;;;;;;7.05;5.63;;;;;;;27.64;56.72;99305.63;5018318;28;19931;-75
2023/06/18 09:19:16;;;;;;;5.55;4.40;;;;;;;27.91;56.12;99287.44;5010090;28;20526;-74
2023/06/18 09:21:42;;;;;;;7.70;5.03;;;;;;;28.62;55.63;99463.22;5008761;28;20038;-75
2023/06/18 09:24:24;;;;;;;11.63;6.00;;;;;;;27.55;55.59;99033.41;5003948;28;20124;-75
2023/06/18 09:27:00;;;;;;;5.90;5.30;;;;;;;27.60;55.87;99173.06;5016097;28;20030;-75
2023/06/18 09:29:31;;;;;;;5.38;4.75;;;;;;;27.47;56.99;99289.06;5015236;28;20037;-75
2023/06/18 09:32:11;;;;;;;8.52;5.35;;;;;;;28.59;56.18;99525.06;5011999;28;20041;-75
2023/06/18 09:34:38;;;;;;;6.03;5.30;;;;;;;29.50;54.06;99483.66;5008288;28;20682;-75
2023/06/18 09:37:06;;;;;;;5.93;5.13;;;;;;;29.46;52.71;99247.09;5009788;28;20026;-75
2023/06/18 09:39:33;;;;;;;6.80;5.70;;;;;;;29.40;53.04;99259.38;5008646;28;20038;-75
2023/06/18 09:42:07;;;;;;;5.57;5.07;;;;;;;29.53;51.72;99181.41;5009632;28;20531;-75
2023/06/18 09:44:33;;;;;;;7.95;5.00;;;;;;;30.06;51.63;99325.16;5009129;28;20030;-75
2023/06/18 09:46:59;;;;;;;9.93;5.35;;;;;;;30.06;50.87;99223.34;5018608;28;20025;-76
2023/06/18 09:49:27;;;;;;;5.63;5.03;;;;;;;29.88;49.79;98966.78;5015263;28;20030;-75
2023/06/18 09:51:53;;;;;;;;;;;;;;;29.67;50.84;99121.56;5015426;28;20390;-76
2023/06/18 09:54:20;;;;;;;5.22;4.72;;;;;;;28.44;52.49;98970.16;5014453;28;19996;-75
2023/06/18 09:56:59;;;;;;;6.38;5.07;;;;;;;28.55;50.21;98604.47;5008346;28;20029;-75
2023/06/18 09:59:26;;;;;;;7.20;5.00;;;;;;;28.92;51.02;98967.22;5009335;28;20073;-75
2023/06/18 10:01:51;;;;;;;5.95;5.35;;;;;;;29.08;50.05;98907.06;5008207;28;20376;-75
2023/06/18 10:04:17;;;;;;;5.55;4.75;;;;;;;29.97;49.55;99116.09;5007718;28;20037;-76
2023/06/18 10:07:15;;;;;;;;;;;;;;;30.38;48.95;99157.81;5008994;28;20766;-75
2023/06/18 10:09:42;;;;;;;6.72;5.00;;;;;;;30.15;47.89;98891.16;5002446;28;19995;-75
2023/06/18 10:12:11;;;;;;;4.80;4.40;;;;;;;30.35;46.82;98787.69;5001022;28;20017;-75
2023/06/18 10:14:38;;;;;;;5.80;5.20;;;;;;;30.61;46.19;98794.84;5007688;28;20034;-75
2023/06/18 10:17:14;;;;;;;5.72;5.22;;;;;;;29.85;46.35;98574.16;5009050;28;20121;-75
2023/06/18 10:19:46;;;;;;;7.75;5.32;;;;;;;29.91;48.30;98959.81;4988481;28;20077;-75
2023/06/18 10:22:14;;;;;;;6.63;5.25;;;;;;;30.15;46.91;98816.84;5001412;28;20037;-75
2023/06/18 10:24:45;;;;;;;5.97;5.28;;;;;;;30.16;46.85;98757.94;5008841;28;20030;-75
2023/06/18 10:27:11;;;;;;;6.50;4.45;;;;;;;30.43;45.98;98772.22;5008910;28;20087;-75
2023/06/18 10:29:37;;;;;;;;;;;;;;;30.82;45.40;98767.19;5009661;28;20501;-75
2023/06/18 10:32:04;;;;;;;4.88;4.40;;;;;;;30.38;44.40;98483.44;5008734;28;19921;-75
2023/06/18 10:34:30;;;;;;;6.43;4.55;;;;;;;30.85;43.42;98551.66;5007324;28;20037;-75
2023/06/18 10:36:57;;;;;;;5.38;4.60;;;;;;;30.83;44.72;98730.22;5008789;28;20069;-74
2023/06/18 10:39:23;;;;;;;5.28;4.80;;;;;;;31.27;44.03;98771.72;5006031;28;20388;-75
2023/06/18 10:41:50;;;;;;;;;;;;;;;31.37;44.63;98877.94;5008036;28;20037;-75
2023/06/18 10:44:16;;;;;;;6.00;5.20;;;;;;;32.08;42.27;98703.47;5008287;28;20374;-75
2023/06/18 10:47:01;;;;;;;;;;;;;;;32.53;41.88;98781.53;5009343;28;20092;-75
2023/06/18 10:49:26;;;;;;;5.53;4.53;;;;;;;31.37;40.96;98192.31;5008782;28;19913;-75
2023/06/18 10:51:58;;;;;;;8.65;5.05;;;;;;;32.06;41.37;98575.28;5005986;28;20036;-75
2023/06/18 10:54:29;;;;;;;7.75;4.53;;;;;;;31.49;42.39;98538.81;5007616;28;20052;-74
2023/06/18 10:56:57;;;;;;;5.90;4.57;;;;;;;31.86;41.31;98477.81;5007702;28;20397;-75
2023/06/18 10:59:45;;;;;;;5.25;4.75;;;;;;;31.65;40.81;98285.88;5015294;28;20018;-75
2023/06/18 11:02:13;;;;;;;5.18;4.60;;;;;;;31.74;40.80;98426.34;5007160;28;20581;-75
2023/06/18 11:04:40;;;;;;;5.57;4.88;;;;;;;31.84;40.77;98463.59;5005869;28;20079;-75
2023/06/18 11:07:17;;;;;;;6.38;5.13;;;;;;;31.42;40.41;98236.19;5005950;28;20067;-75
2023/06/18 11:09:48;;;;;;;6.50;5.55;;;;;;;30.84;41.15;98211.28;5001374;28;20096;-75
2023/06/18 11:12:21;;;;;;;6.82;5.22;;;;;;;30.58;41.26;98113.50;5010945;28;20030;-75
2023/06/18 11:15:10;;;;;;;5.63;5.13;;;;;;;31.11;41.50;98419.72;5001429;28;20026;-75
2023/06/18 11:17:38;;;;;;;6.53;4.75;;;;;;;31.60;42.60;98790.03;5001220;28;20140;-75
2023/06/18 11:20:05;;;;;;;6.57;5.10;;;;;;;31.59;41.64;98573.34;5008426;28;20068;-75
2023/06/18 11:22:30;;;;;;;7.28;4.82;;;;;;;31.99;40.46;98544.78;5005922;28;20030;-75
2023/06/18 11:24:59;;;;;;;;;;;;;;;32.01;40.58;98567.25;5006382;28;20084;-76
2023/06/18 11:27:26;;;;;;;6.30;4.72;;;;;;;30.93;41.87;98374.41;5006310;28;19917;-75